Time;durP1;ratioP1;P1;durP2;ratioP2;P2;SDS_P1;SDS_P2;PMS_P1;PMS_P2;Temp;Humidity;BMP_temperature;BMP_pressure;BME280_temperature;BME280_humidity;BME280_pressure;Samples;Min_cycle;Max_cycle;Signal;HPM_P1;HPM_P2
2023/06/18 00:02:02;;;;;;;20.95;8.43;;;;;;;;;;5083410;28;20055;-74
2023/06/18 00:04:28;;;;;;;19.65;8.00;;;;;;;;;;5072831;28;20033;-73
2023/06/18 00:06:54;;;;;;;13.30;8.05;;;;;;;;;;5077810;28;20640;-74
2023/06/18 00:09:20;;;;;;;11.13;7.72;;;;;;;;;;5072520;28;20027;-74
2023/06/18 00:11:45;;;;;;;13.65;8.80;;;;;;;;;;5074737;28;20037;-74
2023/06/18 00:14:10;;;;;;;13.07;8.10;;;;;;;;;;5068370;28;20444;-74
2023/06/18 00:16:35;;;;;;;12.27;7.95;;;;;;;;;;5081392;28;20046;-73
2023/06/18 00:19:01;;;;;;;12.27;7.25;;;;;;;;;;5070442;28;20051;-73
2023/06/18 00:21:26;;;;;;;12.75;7.75;;;;;;;;;;5071253;28;20052;-73
2023/06/18 00:23:52;;;;;;;10.35;6.97;;;;;;;;;;5084099;28;20024;-74
2023/06/18 00:26:17;;;;;;;11.23;7.22;;;;;;;;;;5087180;28;20024;-74
2023/06/18 00:28:42;;;;;;;18.67;7.85;;;;;;;;;;5070116;28;20112;-73
2023/06/18 00:31:11;;;;;;;12.60;7.60;;;;;;;;;;5065720;28;20058;-74
2023/06/18 00:33:37;;;;;;;13.52;7.75;;;;;;;;;;5072167;28;20079;-73
2023/06/18 00:36:06;;;;;;;13.57;8.38;;;;;;;;;;5070863;28;20379;-73
2023/06/18 00:38:33;;;;;;;14.43;8.48;;;;;;;;;;5062332;28;20063;-73
2023/06/18 00:40:59;;;;;;;14.48;8.95;;;;;;;;;;5081379;28;20491;-73
2023/06/18 00:43:28;;;;;;;10.70;7.88;;;;;;;;;;5080245;28;20086;-73
2023/06/18 00:46:01;;;;;;;18.10;9.30;;;;;;;;;;5078708;28;20028;-73
2023/06/18 00:48:27;;;;;;;13.23;9.20;;;;;;;;;;5066047;28;20085;-73
2023/06/18 00:50:53;;;;;;;19.10;11.25;;;;;;;;;;5069632;28;20387;-74
2023/06/18 00:53:20;;;;;;;14.82;8.93;;;;;;;;;;5077168;28;20203;-71
2023/06/18 00:55:47;;;;;;;12.93;9.20;;;;;;;;;;5071323;28;20162;-72
2023/06/18 00:58:13;;;;;;;12.63;7.07;;;;;;;;;;5067310;28;20036;-72
2023/06/18 01:00:40;;;;;;;9.00;6.95;;;;;;;;;;5067901;28;20041;-74
2023/06/18 01:03:16;;;;;;;13.60;7.90;;;;;;;;;;5068450;28;20382;-72
2023/06/18 01:05:55;;;;;;;19.50;6.97;;;;;;;;;;5080404;28;20044;-72
2023/06/18 01:08:23;;;;;;;10.43;6.82;;;;;;;;;;5077433;28;20483;-72
2023/06/18 01:11:04;;;;;;;12.50;7.18;;;;;;;;;;5064051;28;20124;-75
2023/06/18 01:13:36;;;;;;;13.10;7.63;;;;;;;;;;5078602;28;20032;-72
2023/06/18 01:16:05;;;;;;;13.90;7.97;;;;;;;;;;5070882;28;20398;-74
2023/06/18 01:18:39;;;;;;;11.10;7.60;;;;;;;;;;5076483;28;20098;-72
2023/06/18 01:21:09;;;;;;;;;;;;;;;;;;5063588;28;20125;-72
2023/06/18 01:24:03;;;;;;;16.35;8.85;;;;;;;;;;5071841;28;19909;-74
2023/06/18 01:26:30;;;;;;;11.23;7.55;;;;;;;;;;5058851;28;20090;-72
2023/06/18 01:28:58;;;;;;;15.43;9.45;;;;;;;;;;5057120;28;20338;-74
2023/06/18 01:31:24;;;;;;;13.85;7.60;;;;;;;;;;5065198;28;20037;-74
2023/06/18 01:33:53;;;;;;;13.40;8.18;;;;;;;;;;5072214;28;20079;-71
2023/06/18 01:36:53;;;;;;;17.30;9.07;;;;;;;;;;5068387;28;20029;-74
2023/06/18 01:39:31;;;;;;;16.38;8.70;;;;;;;;;;5063219;28;20077;-72
2023/06/18 01:42:06;;;;;;;17.08;8.85;;;;;;;;;;5073355;28;20507;-73
2023/06/18 01:44:32;;;;;;;18.08;8.43;;;;;;;;;;5070629;28;20048;-72
2023/06/18 01:46:58;;;;;;;14.25;7.50;;;;;;;;;;5077192;28;20143;-72
2023/06/18 01:49:26;;;;;;;15.48;8.45;;;;;;;;;;5062114;28;20024;-72
2023/06/18 01:51:52;;;;;;;18.70;9.50;;;;;;;;;;5056795;28;20567;-72
2023/06/18 01:54:20;;;;;;;12.90;8.90;;;;;;;;;;5060784;28;20036;-72
2023/06/18 01:56:45;;;;;;;16.25;9.02;;;;;;;;;;5059433;28;20049;-72
2023/06/18 01:59:11;;;;;;;17.23;8.85;;;;;;;;;;5064345;28;20063;-72
2023/06/18 02:01:40;;;;;;;13.30;8.80;;;;;;;;;;5065453;28;20098;-72
2023/06/18 02:04:05;;;;;;;12.27;8.35;;;;;;;;;;5082716;28;20024;-72
2023/06/18 02:06:31;;;;;;;12.80;8.98;;;;;;;;;;5070443;28;20087;-72
2023/06/18 02:08:56;;;;;;;11.23;7.43;;;;;;;;;;5055007;28;20120;-72
2023/06/18 02:11:21;;;;;;;15.85;8.55;;;;;;;;;;5078727;28;20059;-72
2023/06/18 02:13:46;;;;;;;14.60;9.02;;;;;;;;;;5070042;28;20453;-72
2023/06/18 02:16:12;;;;;;;12.63;8.30;;;;;;;;;;5083493;28;20159;-72
2023/06/18 02:18:37;;;;;;;16.27;8.93;;;;;;;;;;5067591;28;20036;-72
2023/06/18 02:21:02;;;;;;;11.32;7.90;;;;;;;;;;5066703;28;20017;-72
2023/06/18 02:23:28;;;;;;;12.15;7.85;;;;;;;;;;5065374;28;20094;-73
2023/06/18 02:25:53;;;;;;;11.90;7.95;;;;;;;;;;5066687;28;20391;-72
2023/06/18 02:28:18;;;;;;;12.82;8.32;;;;;;;;;;5064634;28;20490;-72
2023/06/18 02:30:43;;;;;;;15.63;8.77;;;;;;;;;;5063931;28;20060;-72
2023/06/18 02:33:10;;;;;;;11.80;8.00;;;;;;;;;;5068032;28;20399;-72
2023/06/18 02:35:35;;;;;;;10.07;7.95;;;;;;;;;;5081926;28;20107;-72
2023/06/18 02:38:01;;;;;;;11.95;8.20;;;;;;;;;;5071890;28;20121;-72
2023/06/18 02:40:26;;;;;;;13.50;8.10;;;;;;;;;;5069951;28;20025;-72
2023/06/18 02:42:52;;;;;;;13.70;8.82;;;;;;;;;;5075761;28;20036;-72
2023/06/18 02:45:18;;;;;;;21.15;9.80;;;;;;;;;;5076836;28;20027;-72
2023/06/18 02:47:44;;;;;;;19.90;9.50;;;;;;;;;;5086765;28;20119;-72
2023/06/18 02:50:11;;;;;;;14.73;9.52;;;;;;;;;;5078134;28;20511;-72
2023/06/18 02:52:36;;;;;;;15.20;9.40;;;;;;;;;;5070169;28;20125;-72
2023/06/18 02:55:02;;;;;;;18.60;10.20;;;;;;;;;;5069159;28;20111;-72
2023/06/18 02:57:27;;;;;;;15.07;9.95;;;;;;;;;;5069749;28;20036;-72
2023/06/18 02:59:52;;;;;;;15.07;9.48;;;;;;;;;;5070874;28;20107;-72
2023/06/18 03:02:18;;;;;;;22.50;9.57;;;;;;;;;;5063534;28;20043;-72
2023/06/18 03:04:43;;;;;;;16.10;10.43;;;;;;;;;;5078212;28;20031;-72
2023/06/18 03:07:08;;;;;;;14.05;10.15;;;;;;;;;;5069805;28;20064;-72
2023/06/18 03:09:34;;;;;;;14.88;10.57;;;;;;;;;;5057503;28;20391;-72
2023/06/18 03:11:59;;;;;;;17.90;11.05;;;;;;;;;;5070533;28;20115;-72
2023/06/18 03:14:25;;;;;;;16.80;8.93;;;;;;;;;;5074015;28;20406;-72
2023/06/18 03:16:50;;;;;;;13.38;8.20;;;;;;;;;;5070114;28;20028;-72
2023/06/18 03:19:16;;;;;;;14.88;8.70;;;;;;;;;;5081717;28;20059;-74
2023/06/18 03:21:41;;;;;;;13.10;9.32;;;;;;;;;;5073694;28;20060;-74
2023/06/18 03:24:06;;;;;;;15.23;9.48;;;;;;;;;;5071280;28;20024;-72
2023/06/18 03:26:36;;;;;;;16.77;10.35;;;;;;;;;;5083262;28;20103;-72
2023/06/18 03:29:05;;;;;;;17.55;9.75;;;;;;;;;;5067449;28;20041;-72
2023/06/18 03:31:31;;;;;;;19.77;10.20;;;;;;;;;;5065474;28;20120;-72
2023/06/18 03:34:01;;;;;;;14.77;8.23;;;;;;;;;;5071210;28;20028;-72
2023/06/18 03:36:39;;;;;;;16.35;9.68;;;;;;;;;;5074957;28;20101;-74
2023/06/18 03:39:05;;;;;;;15.00;7.45;;;;;;;;;;5067118;28;20040;-72
2023/06/18 03:41:31;;;;;;;12.75;7.75;;;;;;;;;;5079369;28;20575;-74
2023/06/18 03:43:56;;;;;;;8.57;6.28;;;;;;;;;;5072575;28;20036;-74
2023/06/18 03:46:21;;;;;;;15.93;7.57;;;;;;;;;;5074924;28;20033;-72
2023/06/18 03:48:47;;;;;;;12.85;7.38;;;;;;;;;;5068434;28;20074;-72
2023/06/18 03:51:12;;;;;;;11.73;7.45;;;;;;;;;;5068954;28;20024;-72
2023/06/18 03:53:37;;;;;;;18.42;6.03;;;;;;;;;;5089180;28;20024;-72
2023/06/18 03:56:07;;;;;;;10.07;6.88;;;;;;;;;;5084839;28;20044;-72
2023/06/18 03:58:32;;;;;;;10.10;6.60;;;;;;;;;;5078667;28;20039;-72
2023/06/18 04:00:57;;;;;;;11.13;7.10;;;;;;;;;;5073393;28;20029;-72
2023/06/18 04:03:23;;;;;;;13.52;7.30;;;;;;;;;;5078312;28;20033;-72
2023/06/18 04:05:49;;;;;;;10.45;6.75;;;;;;;;;;5073556;28;20025;-72
2023/06/18 04:08:16;;;;;;;11.15;7.60;;;;;;;;;;5071376;28;20032;-72
2023/06/18 04:10:43;;;;;;;8.55;6.72;;;;;;;;;;5072785;28;20483;-72
2023/06/18 04:13:12;;;;;;;9.48;7.13;;;;;;;;;;5067798;28;20540;-73
2023/06/18 04:15:37;;;;;;;10.98;7.20;;;;;;;;;;5078273;28;20108;-73
2023/06/18 04:18:03;;;;;;;10.80;7.75;;;;;;;;;;5072398;28;20064;-72
2023/06/18 04:20:28;;;;;;;9.00;7.35;;;;;;;;;;5062220;28;20383;-72
2023/06/18 04:22:53;;;;;;;9.75;6.82;;;;;;;;;;5072311;28;20033;-72
2023/06/18 04:25:18;;;;;;;11.57;6.95;;;;;;;;;;5065072;28;20029;-72
2023/06/18 04:27:44;;;;;;;9.30;6.53;;;;;;;;;;5062889;28;20037;-72
2023/06/18 04:30:09;;;;;;;11.75;7.53;;;;;;;;;;5065360;28;20035;-72
2023/06/18 04:32:35;;;;;;;9.20;5.80;;;;;;;;;;5069878;28;20024;-72
2023/06/18 04:35:00;;;;;;;9.48;6.75;;;;;;;;;;5061804;28;20041;-72
2023/06/18 04:37:26;;;;;;;10.70;6.40;;;;;;;;;;5065966;28;20024;-72
2023/06/18 04:39:51;;;;;;;13.68;6.20;;;;;;;;;;5067719;28;20033;-72
2023/06/18 04:42:16;;;;;;;10.07;7.00;;;;;;;;;;5070076;28;20082;-73
2023/06/18 04:44:41;;;;;;;8.70;6.57;;;;;;;;;;5071161;28;20401;-73
2023/06/18 04:47:07;;;;;;;13.30;6.72;;;;;;;;;;5067831;28;20041;-73
2023/06/18 04:49:32;;;;;;;11.10;6.90;;;;;;;;;;5069529;28;20127;-73
2023/06/18 04:51:57;;;;;;;11.05;6.63;;;;;;;;;;5064675;28;20066;-72
2023/06/18 04:54:23;;;;;;;11.45;6.72;;;;;;;;;;5076224;28;20097;-73
2023/06/18 04:56:48;;;;;;;12.48;6.82;;;;;;;;;;5071642;28;20020;-73
2023/06/18 04:59:13;;;;;;;10.75;6.93;;;;;;;;;;5076488;28;20063;-73
2023/06/18 05:01:38;;;;;;;12.90;6.95;;;;;;;;;;5062896;28;20033;-73
2023/06/18 05:04:04;;;;;;;10.18;7.28;;;;;;;;;;5066133;28;20067;-73
2023/06/18 05:06:30;;;;;;;9.30;7.18;;;;;;;;;;5071641;28;20399;-73
2023/06/18 05:08:55;;;;;;;9.10;6.68;;;;;;;;;;5066341;28;20027;-73
2023/06/18 05:11:20;;;;;;;8.40;6.30;;;;;;;;;;5063639;28;20033;-73
2023/06/18 05:13:46;;;;;;;11.05;7.00;;;;;;;;;;5071301;28;20040;-73
2023/06/18 05:16:11;;;;;;;9.98;6.93;;;;;;;;;;5072506;28;20128;-73
2023/06/18 05:18:38;;;;;;;12.32;7.10;;;;;;;;;;5057275;28;20414;-73
2023/06/18 05:21:03;;;;;;;9.40;6.57;;;;;;;;;;5069248;28;20384;-73
2023/06/18 05:23:29;;;;;;;14.55;6.53;;;;;;;;;;5060332;28;20038;-73
2023/06/18 05:25:54;;;;;;;9.85;6.60;;;;;;;;;;5061006;28;20048;-73
2023/06/18 05:28:20;;;;;;;9.55;7.15;;;;;;;;;;5070288;28;20131;-73
2023/06/18 05:30:46;;;;;;;9.10;6.60;;;;;;;;;;5065363;28;20537;-73
2023/06/18 05:33:12;;;;;;;8.57;6.10;;;;;;;;;;5064472;28;20475;-73
2023/06/18 05:35:37;;;;;;;8.95;6.60;;;;;;;;;;5062156;28;20021;-73
2023/06/18 05:38:03;;;;;;;8.43;6.20;;;;;;;;;;5066946;28;20474;-73
2023/06/18 05:40:28;;;;;;;8.15;5.45;;;;;;;;;;5070942;28;20082;-73
2023/06/18 05:42:53;;;;;;;6.07;5.47;;;;;;;;;;5059785;28;20033;-73
2023/06/18 05:45:19;;;;;;;7.72;5.47;;;;;;;;;;5062203;28;20032;-73
2023/06/18 05:47:44;;;;;;;6.55;5.10;;;;;;;;;;5071664;28;20028;-74
2023/06/18 05:50:09;;;;;;;11.48;6.28;;;;;;;;;;5066823;28;20043;-73
2023/06/18 05:52:35;;;;;;;5.97;5.30;;;;;;;;;;5064159;28;20039;-74
2023/06/18 05:55:00;;;;;;;9.07;6.50;;;;;;;;;;5055960;28;20119;-73
2023/06/18 05:57:26;;;;;;;7.55;5.55;;;;;;;;;;5050777;28;20032;-74
2023/06/18 05:59:51;;;;;;;10.02;5.57;;;;;;;;;;5057807;28;20029;-74
2023/06/18 06:02:16;;;;;;;9.48;5.57;;;;;;;;;;5064420;28;20028;-74
2023/06/18 06:04:42;;;;;;;12.23;5.65;;;;;;;;;;5068384;28;20032;-74
2023/06/18 06:07:07;;;;;;;6.75;5.22;;;;;;;;;;5060393;28;20028;-74
2023/06/18 06:09:32;;;;;;;7.00;5.60;;;;;;;;;;5054843;28;20044;-74
2023/06/18 06:11:58;;;;;;;7.65;5.63;;;;;;;;;;5057704;28;20032;-74
2023/06/18 06:14:23;;;;;;;7.85;5.50;;;;;;;;;;5064632;28;20028;-74
2023/06/18 06:16:50;;;;;;;8.38;5.55;;;;;;;;;;5058171;28;20021;-74
2023/06/18 06:19:16;;;;;;;6.95;5.18;;;;;;;;;;5058692;28;20032;-74
2023/06/18 06:21:41;;;;;;;6.30;5.10;;;;;;;;;;5050664;28;20036;-73
2023/06/18 06:24:06;;;;;;;6.50;5.22;;;;;;;;;;5060417;28;20525;-74
2023/06/18 06:26:31;;;;;;;6.65;4.95;;;;;;;;;;5057753;28;20025;-74
2023/06/18 06:28:57;;;;;;;5.43;4.70;;;;;;;;;;5054167;28;20029;-74
2023/06/18 06:31:22;;;;;;;6.20;5.07;;;;;;;;;;5054939;28;20040;-74
2023/06/18 06:33:48;;;;;;;5.38;4.88;;;;;;;;;;5062781;28;20403;-74
2023/06/18 06:36:13;;;;;;;10.10;5.50;;;;;;;;;;5059990;28;20438;-74
2023/06/18 06:38:39;;;;;;;5.95;4.53;;;;;;;;;;5062471;28;20495;-74
2023/06/18 06:41:04;;;;;;;8.18;4.70;;;;;;;;;;5058814;28;20456;-73
2023/06/18 06:43:30;;;;;;;5.32;4.82;;;;;;;;;;5064481;28;20028;-73
2023/06/18 06:45:55;;;;;;;6.72;4.97;;;;;;;;;;5062449;28;20041;-73
2023/06/18 06:48:20;;;;;;;6.07;4.80;;;;;;;;;;5063077;28;20482;-73
2023/06/18 06:50:46;;;;;;;8.23;5.05;;;;;;;;;;5055167;28;20071;-73
2023/06/18 06:53:11;;;;;;;7.70;4.90;;;;;;;;;;5061663;28;20120;-73
2023/06/18 06:55:36;;;;;;;6.13;4.80;;;;;;;;;;5063864;28;20070;-74
2023/06/18 06:58:01;;;;;;;7.03;4.82;;;;;;;;;;5057225;28;20149;-74
2023/06/18 07:00:27;;;;;;;5.90;4.88;;;;;;;;;;5062839;28;20029;-75
2023/06/18 07:02:52;;;;;;;8.23;4.75;;;;;;;;;;5062109;28;20029;-74
2023/06/18 07:05:17;;;;;;;7.22;4.90;;;;;;;;;;5055267;28;20064;-75
2023/06/18 07:07:43;;;;;;;7.05;5.00;;;;;;;;;;5056394;28;20058;-74
2023/06/18 07:10:08;;;;;;;10.90;5.43;;;;;;;;;;5052487;28;20411;-74
2023/06/18 07:12:33;;;;;;;5.80;4.72;;;;;;;;;;5060050;28;20039;-74
2023/06/18 07:14:59;;;;;;;7.43;5.45;;;;;;;;;;5062030;28;20035;-74
2023/06/18 07:17:24;;;;;;;7.95;5.40;;;;;;;;;;5057019;28;20078;-74
2023/06/18 07:19:49;;;;;;;5.55;4.95;;;;;;;;;;5063387;28;20037;-74
2023/06/18 07:22:15;;;;;;;7.38;5.55;;;;;;;;;;5071921;28;20032;-74
2023/06/18 07:24:40;;;;;;;5.85;4.82;;;;;;;;;;5069154;28;20060;-74
2023/06/18 07:27:05;;;;;;;6.20;5.13;;;;;;;;;;5068942;28;20074;-74
2023/06/18 07:29:31;;;;;;;6.78;5.13;;;;;;;;;;5060148;28;20021;-74
2023/06/18 07:31:56;;;;;;;7.47;5.03;;;;;;;;;;5069714;28;20132;-74
2023/06/18 07:34:21;;;;;;;5.85;5.25;;;;;;;;;;5065013;28;20064;-74
2023/06/18 07:36:47;;;;;;;7.13;4.85;;;;;;;;;;5066435;28;20842;-74
2023/06/18 07:39:12;;;;;;;8.98;5.07;;;;;;;;;;5060524;28;20024;-74
2023/06/18 07:41:38;;;;;;;11.00;5.30;;;;;;;;;;5068316;28;20024;-74
2023/06/18 07:44:03;;;;;;;8.98;4.97;;;;;;;;;;5067011;28;20820;-74
2023/06/18 07:46:28;;;;;;;5.28;4.78;;;;;;;;;;5064366;28;20396;-74
2023/06/18 07:48:54;;;;;;;8.13;4.35;;;;;;;;;;5072117;28;20044;-75
2023/06/18 07:51:19;;;;;;;6.32;4.78;;;;;;;;;;5058555;28;20033;-74
2023/06/18 07:53:45;;;;;;;7.35;4.55;;;;;;;;;;5067935;28;20040;-74
2023/06/18 07:56:10;;;;;;;6.40;4.28;;;;;;;;;;5061449;28;20029;-74
2023/06/18 07:58:36;;;;;;;9.95;5.05;;;;;;;;;;5063377;28;20033;-74
2023/06/18 08:01:01;;;;;;;7.38;5.03;;;;;;;;;;5058009;28;20084;-74
2023/06/18 08:03:26;;;;;;;6.82;4.80;;;;;;;;;;5063168;28;20035;-74
2023/06/18 08:05:52;;;;;;;5.25;4.68;;;;;;;;;;5068500;28;20044;-74
2023/06/18 08:08:17;;;;;;;6.80;4.68;;;;;;;;;;5068946;28;20062;-75
2023/06/18 08:10:42;;;;;;;5.85;4.60;;;;;;;;;;5064572;28;20037;-74
2023/06/18 08:13:08;;;;;;;6.47;4.28;;;;;;;;;;5057427;28;20037;-74
2023/06/18 08:15:33;;;;;;;6.18;4.72;;;;;;;;;;5064038;28;20403;-74
2023/06/18 08:17:58;;;;;;;5.03;4.53;;;;;;;;;;5061643;28;21959;-74
2023/06/18 08:20:24;;;;;;;6.78;5.03;;;;;;;;;;5067728;28;20032;-74
2023/06/18 08:22:49;;;;;;;6.85;4.88;;;;;;;;;;5065024;28;20041;-74
2023/06/18 08:25:15;;;;;;;5.72;4.65;;;;;;;;;;5063994;28;20120;-75
2023/06/18 08:27:40;;;;;;;8.18;4.70;;;;;;;;;;5063248;28;20039;-74
2023/06/18 08:30:06;;;;;;;5.35;4.85;;;;;;;;;;5052876;28;20033;-75
2023/06/18 08:32:31;;;;;;;6.20;5.15;;;;;;;;;;5078830;28;20024;-75
2023/06/18 08:34:57;;;;;;;7.90;4.93;;;;;;;;;;5073570;28;20040;-74
2023/06/18 08:37:22;;;;;;;9.27;5.03;;;;;;;;;;5051811;28;21690;-74
2023/06/18 08:39:47;;;;;;;5.30;4.78;;;;;;;;;;5060340;28;20041;-74
2023/06/18 08:42:17;;;;;;;5.30;4.80;;;;;;;;;;5059719;28;20487;-74
2023/06/18 08:44:46;;;;;;;5.50;5.00;;;;;;;;;;5063106;28;20036;-74
2023/06/18 08:47:11;;;;;;;8.05;4.70;;;;;;;;;;5060415;28;20044;-73
2023/06/18 08:49:41;;;;;;;6.25;5.00;;;;;;;;;;5056789;28;20574;-74
2023/06/18 08:52:08;;;;;;;7.07;4.90;;;;;;;;;;5063785;28;20132;-74
2023/06/18 08:54:34;;;;;;;5.85;4.78;;;;;;;;;;5060826;28;20396;-74
2023/06/18 08:57:06;;;;;;;8.27;5.65;;;;;;;;;;5068455;28;20028;-74
2023/06/18 08:59:32;;;;;;;5.15;4.65;;;;;;;;;;5066313;28;20044;-74
2023/06/18 09:01:58;;;;;;;6.90;5.18;;;;;;;;;;5070831;28;20037;-74
2023/06/18 09:04:25;;;;;;;11.80;5.32;;;;;;;;;;5065228;28;20040;-74
2023/06/18 09:06:51;;;;;;;8.23;5.25;;;;;;;;;;5065050;28;20040;-74
2023/06/18 09:09:17;;;;;;;7.13;5.05;;;;;;;;;;5068686;28;20441;-74
2023/06/18 09:11:42;;;;;;;7.90;4.60;;;;;;;;;;5059768;28;20554;-73
2023/06/18 09:14:07;;;;;;;5.72;5.15;;;;;;;;;;5061590;28;20035;-75
2023/06/18 09:16:32;;;;;;;8.38;4.97;;;;;;;;;;5056893;28;20399;-73
2023/06/18 09:18:59;;;;;;;12.25;5.38;;;;;;;;;;5055868;28;20036;-73
2023/06/18 09:21:51;;;;;;;7.45;4.80;;;;;;;;;;5052790;28;20056;-73
2023/06/18 09:24:20;;;;;;;6.13;5.10;;;;;;;;;;5052939;28;20044;-73
2023/06/18 09:26:46;;;;;;;5.47;4.97;;;;;;;;;;5059998;28;20036;-73
2023/06/18 09:29:12;;;;;;;6.40;4.55;;;;;;;;;;5050755;28;20073;-74
2023/06/18 09:31:41;;;;;;;6.20;5.28;;;;;;;;;;5051008;28;20056;-74
2023/06/18 09:34:19;;;;;;;5.90;5.00;;;;;;;;;;5056579;28;20033;-73
2023/06/18 09:36:47;;;;;;;8.23;5.00;;;;;;;;;;5049277;28;20547;-74
2023/06/18 09:39:25;;;;;;;6.05;5.18;;;;;;;;;;5049581;28;20525;-73
2023/06/18 09:41:55;;;;;;;7.55;4.70;;;;;;;;;;5056805;28;20090;-74
2023/06/18 09:44:22;;;;;;;14.95;5.50;;;;;;;;;;5066544;28;20127;-73
2023/06/18 09:46:56;;;;;;;7.43;5.00;;;;;;;;;;5059887;28;20041;-74
2023/06/18 09:49:23;;;;;;;6.60;5.15;;;;;;;;;;5062378;28;20461;-74
2023/06/18 09:51:50;;;;;;;7.38;4.85;;;;;;;;;;5066125;28;20041;-74
2023/06/18 09:54:16;;;;;;;6.07;5.43;;;;;;;;;;5075298;28;20028;-74
2023/06/18 09:56:58;;;;;;;12.55;4.95;;;;;;;;;;5071584;28;20156;-74
2023/06/18 09:59:24;;;;;;;5.75;4.82;;;;;;;;;;5069602;28;20032;-74
2023/06/18 10:01:50;;;;;;;6.07;4.93;;;;;;;;;;5070611;28;20040;-74
2023/06/18 10:04:16;;;;;;;6.45;4.75;;;;;;;;;;5070246;28;20041;-73
2023/06/18 10:06:49;;;;;;;7.43;5.10;;;;;;;;;;5072832;28;20040;-74
2023/06/18 10:09:14;;;;;;;7.93;5.32;;;;;;;;;;5077860;28;20119;-74
2023/06/18 10:11:40;;;;;;;5.10;4.60;;;;;;;;;;5069311;28;20143;-74
2023/06/18 10:14:13;;;;;;;6.82;5.10;;;;;;;;;;5069893;28;20542;-74
2023/06/18 10:16:45;;;;;;;7.50;4.80;;;;;;;;;;5070926;28;20064;-73
2023/06/18 10:19:36;;;;;;;6.93;5.13;;;;;;;;;;5078533;28;20267;-74
2023/06/18 10:22:05;;;;;;;7.38;4.95;;;;;;;;;;5082095;28;20487;-74
2023/06/18 10:24:36;;;;;;;5.63;4.95;;;;;;;;;;5074494;28;20534;-73
2023/06/18 10:27:02;;;;;;;6.32;4.88;;;;;;;;;;5083097;28;20035;-74
2023/06/18 10:29:29;;;;;;;9.00;5.20;;;;;;;;;;5070776;28;20037;-74
2023/06/18 10:31:55;;;;;;;9.23;5.13;;;;;;;;;;5069499;28;20048;-73
2023/06/18 10:34:21;;;;;;;6.68;5.38;;;;;;;;;;5070738;28;20391;-73
2023/06/18 10:36:47;;;;;;;9.80;4.93;;;;;;;;;;5070757;28;20049;-73
2023/06/18 10:39:12;;;;;;;8.18;5.10;;;;;;;;;;5060418;28;20029;-73
2023/06/18 10:41:39;;;;;;;6.90;5.18;;;;;;;;;;5070913;28;20486;-73
2023/06/18 10:44:04;;;;;;;8.55;5.00;;;;;;;;;;5070342;28;20036;-73
2023/06/18 10:46:33;;;;;;;9.30;4.97;;;;;;;;;;5072983;28;20047;-73
2023/06/18 10:49:16;;;;;;;8.77;5.15;;;;;;;;;;5071766;28;20032;-73
2023/06/18 10:52:14;;;;;;;5.03;4.55;;;;;;;;;;5074441;28;20043;-73
2023/06/18 10:54:40;;;;;;;5.60;5.10;;;;;;;;;;5068039;28;20043;-73
2023/06/18 10:57:05;;;;;;;7.45;4.80;;;;;;;;;;5074286;28;20028;-73
2023/06/18 10:59:45;;;;;;;5.82;5.20;;;;;;;;;;5070970;28;20035;-73
2023/06/18 11:02:14;;;;;;;5.68;5.10;;;;;;;;;;5078461;28;20028;-73
2023/06/18 11:04:40;;;;;;;6.13;5.18;;;;;;;;;;5068549;28;20086;-73
2023/06/18 11:07:18;;;;;;;5.55;5.00;;;;;;;;;;5076766;28;20040;-74
2023/06/18 11:09:58;;;;;;;7.05;5.32;;;;;;;;;;5061321;28;20510;-73
2023/06/18 11:12:35;;;;;;;10.98;4.97;;;;;;;;;;5078102;28;20123;-73
2023/06/18 11:15:07;;;;;;;8.63;5.05;;;;;;;;;;5065507;28;20020;-74
2023/06/18 11:17:35;;;;;;;11.48;5.20;;;;;;;;;;5078746;28;20040;-74
2023/06/18 11:20:01;;;;;;;6.07;5.00;;;;;;;;;;5070107;28;20123;-73
2023/06/18 11:22:30;;;;;;;7.70;5.70;;;;;;;;;;5066684;28;20123;-74
2023/06/18 11:24:59;;;;;;;9.18;5.00;;;;;;;;;;5070335;28;20525;-74
2023/06/18 11:27:27;;;;;;;6.78;5.13;;;;;;;;;;5069616;28;20045;-73
2023/06/18 11:29:58;;;;;;;11.10;5.10;;;;;;;;;;5064182;28;20036;-74
2023/06/18 11:32:27;;;;;;;7.85;4.93;;;;;;;;;;5070891;28;20060;-73
2023/06/18 11:34:55;;;;;;;7.38;5.00;;;;;;;;;;5070147;28;20041;-73
2023/06/18 11:37:23;;;;;;;6.72;5.18;;;;;;;;;;5063630;28;20071;-73
2023/06/18 11:39:49;;;;;;;5.43;4.72;;;;;;;;;;5068968;28;20091;-73
2023/06/18 11:42:17;;;;;;;9.00;5.30;;;;;;;;;;5077247;28;20020;-73
2023/06/18 11:44:51;;;;;;;17.77;5.40;;;;;;;;;;5063389;28;20017;-74
2023/06/18 11:47:17;;;;;;;11.23;5.25;;;;;;;;;;5068788;28;20078;-73
2023/06/18 11:49:47;;;;;;;6.78;5.30;;;;;;;;;;5071268;28;20041;-73
2023/06/18 11:52:14;;;;;;;7.18;5.28;;;;;;;;;;5072701;28;20110;-74
2023/06/18 11:54:41;;;;;;;7.88;4.90;;;;;;;;;;5077755;28;20562;-75
2023/06/18 11:57:10;;;;;;;5.65;4.57;;;;;;;;;;5070118;28;20052;-74
2023/06/18 11:59:36;;;;;;;11.88;5.70;;;;;;;;;;5078965;28;20417;-74
2023/06/18 12:02:12;;;;;;;5.60;4.97;;;;;;;;;;5083034;28;20127;-74
2023/06/18 12:04:38;;;;;;;10.13;4.88;;;;;;;;;;5072300;28;20123;-74
2023/06/18 12:07:04;;;;;;;9.02;5.40;;;;;;;;;;5073378;28;20167;-74
2023/06/18 12:09:34;;;;;;;9.48;4.70;;;;;;;;;;5090334;28;20024;-74
2023/06/18 12:12:03;;;;;;;6.78;5.22;;;;;;;;;;5074098;28;20035;-74
2023/06/18 12:14:41;;;;;;;5.47;4.80;;;;;;;;;;5067955;28;20411;-74
2023/06/18 12:17:19;;;;;;;6.10;5.40;;;;;;;;;;5072982;28;20041;-74
2023/06/18 12:19:51;;;;;;;7.95;5.95;;;;;;;;;;5076793;28;20028;-74
2023/06/18 12:22:16;;;;;;;9.32;5.88;;;;;;;;;;5076928;28;20151;-74
2023/06/18 12:24:43;;;;;;;5.95;5.22;;;;;;;;;;5073128;28;20044;-74
2023/06/18 12:27:09;;;;;;;5.90;4.88;;;;;;;;;;5073223;28;20094;-74
2023/06/18 12:29:34;;;;;;;5.55;5.05;;;;;;;;;;5073009;28;20020;-75
2023/06/18 12:32:04;;;;;;;7.20;4.95;;;;;;;;;;5067517;28;20032;-74
2023/06/18 12:34:33;;;;;;;13.15;9.38;;;;;;;;;;5070293;28;20032;-74
2023/06/18 12:36:58;;;;;;;8.63;5.53;;;;;;;;;;5078122;28;20040;-75
2023/06/18 12:39:24;;;;;;;7.15;4.95;;;;;;;;;;5083713;28;20403;-74
2023/06/18 12:41:50;;;;;;;7.63;5.13;;;;;;;;;;5073158;28;20021;-74
2023/06/18 12:44:18;;;;;;;8.50;6.93;;;;;;;;;;5072526;28;20047;-74
2023/06/18 12:46:44;;;;;;;8.18;5.68;;;;;;;;;;5080950;28;20078;-75
2023/06/18 12:49:09;;;;;;;6.10;5.57;;;;;;;;;;5069576;28;20032;-74
2023/06/18 12:51:42;;;;;;;8.50;7.63;;;;;;;;;;5068194;28;20037;-74
2023/06/18 12:54:18;;;;;;;6.35;5.70;;;;;;;;;;5078300;28;20489;-74
2023/06/18 12:56:52;;;;;;;7.47;6.68;;;;;;;;;;5073401;28;20032;-74
2023/06/18 12:59:22;;;;;;;8.40;5.65;;;;;;;;;;5080968;28;20074;-74
2023/06/18 13:01:48;;;;;;;5.28;4.78;;;;;;;;;;5079355;28;20310;-74
2023/06/18 13:04:16;;;;;;;5.80;5.18;;;;;;;;;;5073342;28;20033;-74
2023/06/18 13:06:41;;;;;;;5.72;5.13;;;;;;;;;;5087214;28;20070;-74
2023/06/18 13:09:07;;;;;;;9.48;6.18;;;;;;;;;;5071071;28;20056;-74
2023/06/18 13:11:32;;;;;;;6.82;5.22;;;;;;;;;;5070875;28;20046;-74
2023/06/18 13:13:58;;;;;;;7.38;5.38;;;;;;;;;;5072240;28;20089;-75
2023/06/18 13:16:24;;;;;;;6.97;5.40;;;;;;;;;;5070708;28;20032;-74
2023/06/18 13:18:49;;;;;;;8.88;5.22;;;;;;;;;;5072985;28;20040;-74
2023/06/18 13:21:14;;;;;;;5.45;4.95;;;;;;;;;;5070996;28;20602;-75
2023/06/18 13:23:40;;;;;;;5.05;4.45;;;;;;;;;;5069396;28;20025;-74
2023/06/18 13:26:05;;;;;;;6.28;4.95;;;;;;;;;;5078207;28;20036;-75
2023/06/18 13:28:30;;;;;;;5.60;5.00;;;;;;;;;;5071290;28;20033;-75
2023/06/18 13:30:57;;;;;;;6.82;4.85;;;;;;;;;;5071757;28;20059;-74
2023/06/18 13:33:23;;;;;;;14.77;9.00;;;;;;;;;;5072290;28;20032;-75
2023/06/18 13:35:48;;;;;;;14.40;8.18;;;;;;;;;;5072053;28;20103;-75
2023/06/18 13:38:14;;;;;;;7.85;5.20;;;;;;;;;;5070818;28;20123;-74
2023/06/18 13:40:40;;;;;;;7.82;5.18;;;;;;;;;;5070034;28;20033;-74
2023/06/18 13:43:05;;;;;;;10.30;4.93;;;;;;;;;;5071545;28;20035;-74
2023/06/18 13:45:30;;;;;;;6.90;5.28;;;;;;;;;;5072422;28;20028;-74
2023/06/18 13:47:56;;;;;;;6.10;4.90;;;;;;;;;;5079070;28;20024;-74
2023/06/18 13:50:21;;;;;;;7.25;4.88;;;;;;;;;;5070962;28;20036;-74
2023/06/18 13:52:47;;;;;;;8.55;5.07;;;;;;;;;;5071403;28;20047;-74
2023/06/18 13:55:12;;;;;;;6.68;5.10;;;;;;;;;;5070424;28;20534;-74
2023/06/18 13:57:37;;;;;;;6.18;4.93;;;;;;;;;;5077963;28;20123;-75
2023/06/18 14:00:03;;;;;;;9.35;5.07;;;;;;;;;;5071301;28;20472;-75
2023/06/18 14:02:29;;;;;;;7.38;5.00;;;;;;;;;;5073313;28;20368;-74
2023/06/18 14:04:54;;;;;;;12.65;5.47;;;;;;;;;;5070442;28;20033;-74
2023/06/18 14:07:19;;;;;;;6.15;5.00;;;;;;;;;;5071377;28;20441;-75
2023/06/18 14:09:46;;;;;;;14.13;5.78;;;;;;;;;;5070893;28;20029;-74
2023/06/18 14:12:13;;;;;;;6.10;5.07;;;;;;;;;;5081467;28;20037;-74
2023/06/18 14:14:38;;;;;;;7.00;5.00;;;;;;;;;;5075503;28;20502;-75
2023/06/18 14:17:09;;;;;;;5.60;5.05;;;;;;;;;;5081142;28;20063;-75
2023/06/18 14:19:35;;;;;;;14.23;5.60;;;;;;;;;;5070851;28;20472;-74
2023/06/18 14:22:00;;;;;;;6.20;4.85;;;;;;;;;;5070503;28;20111;-74
2023/06/18 14:24:26;;;;;;;7.75;5.07;;;;;;;;;;5070339;28;20123;-76
2023/06/18 14:26:52;;;;;;;11.15;5.40;;;;;;;;;;5075151;28;20062;-74
2023/06/18 14:29:18;;;;;;;9.70;5.75;;;;;;;;;;5076729;28;20032;-74
2023/06/18 14:31:43;;;;;;;6.90;5.47;;;;;;;;;;5066780;28;20036;-74
2023/06/18 14:34:09;;;;;;;6.40;4.97;;;;;;;;;;5075443;28;20046;-74
2023/06/18 14:36:35;;;;;;;6.90;5.20;;;;;;;;;;5072870;28;20029;-74
2023/06/18 14:39:00;;;;;;;5.72;5.10;;;;;;;;;;5079381;28;20028;-75